Accueil
METAR-TAF:

METAR-TAF

Aéroports :

Earlton, Ontario, Canada

latitude: 47-42N, longitude: 079-51W, altitude: 243 m

Observation

Le bulletin a été fait il y a 31 heures et 34 minutes, à 00:00 UTC
Vent 4 kt de sud/sud-est
Température 21°C
Humidité 78%
Pression 1017 hPa
Visibilité: 14.5 km
Ciel clair

METAR: CYXR 210000Z AUTO 15004KT 9SM CLR 21/17 A3002 RMK SLP170 DENSITY ALT 1600FT

Heure: 03:34 (07:34 UTC)

Prévision

Le bulletin a été fait il y a 13 heures et 56 minutes, à 17:38 UTC
Prévision valable du 20 à 18 UTC au 20 à 24 UTC
Vent 12 kt de sud
Visibilité: 10 km
Quelques nuages à une hauteur de 4000 ft
A partir de 20 à 1900 UTC
Vent 8 kt de sud
Visibilité: 10 km
Nuages fragmentés à une hauteur de 4000 ft

TAF: CYXR 201738Z 2018/2024 19012KT P6SM FEW040 FM201900 19008KT P6SM BKN040 RMK FCST BASED ON AUTO OBS. NXT FCST WILL BE ISSUED AT 211145Z

Observations et prévisions météorologiques de plus de 4000 aéroports (messages METAR et TAF).

Les stations disponibles sont représentées par des disques jaunes et rouges sur la carte.

Passer la souris dessus pour voir le nom de la station.

Cliquer dessus pour voir les observations et prévisions météorologiques.

Pour changer de carte: cliquez sur les boutons verts avec une croix noire pour zoomer, sur le bouton vert avec un tiret pour effectuer un zoom arrière, ou sur les flèches vertes pour les cartes adjacentes.


METAR-TAF: